sensor_id;sensor_type;location;lat;lon;timestamp;temperature;humidity
46231;DHT22;31949;51.404;-0.038;2023-12-14T00:01:18;6.80;99.90
46231;DHT22;31949;51.404;-0.038;2023-12-14T00:03:45;6.80;99.90
46231;DHT22;31949;51.404;-0.038;2023-12-14T00:06:13;6.70;99.90
46231;DHT22;31949;51.404;-0.038;2023-12-14T00:08:41;6.60;99.90
46231;DHT22;31949;51.404;-0.038;2023-12-14T00:11:10;6.60;99.90
46231;DHT22;31949;51.404;-0.038;2023-12-14T00:13:39;6.60;99.90
46231;DHT22;31949;51.404;-0.038;2023-12-14T00:16:07;6.60;99.90
46231;DHT22;31949;51.404;-0.038;2023-12-14T00:18:35;6.60;99.90
46231;DHT22;31949;51.404;-0.038;2023-12-14T00:21:03;6.50;99.90
46231;DHT22;31949;51.404;-0.038;2023-12-14T00:23:30;6.60;99.90
46231;DHT22;31949;51.404;-0.038;2023-12-14T00:25:57;6.70;99.90
46231;DHT22;31949;51.404;-0.038;2023-12-14T00:28:24;6.70;99.90
46231;DHT22;31949;51.404;-0.038;2023-12-14T00:30:56;6.60;99.90
46231;DHT22;31949;51.404;-0.038;2023-12-14T00:33:24;6.70;99.90
46231;DHT22;31949;51.404;-0.038;2023-12-14T00:35:51;6.60;99.90
46231;DHT22;31949;51.404;-0.038;2023-12-14T00:38:18;6.70;99.90
46231;DHT22;31949;51.404;-0.038;2023-12-14T00:40:45;6.60;99.90
46231;DHT22;31949;51.404;-0.038;2023-12-14T00:43:13;6.70;99.90
46231;DHT22;31949;51.404;-0.038;2023-12-14T00:45:40;6.70;99.90
46231;DHT22;31949;51.404;-0.038;2023-12-14T00:48:10;6.70;99.90
46231;DHT22;31949;51.404;-0.038;2023-12-14T00:50:37;6.70;99.90
46231;DHT22;31949;51.404;-0.038;2023-12-14T00:53:04;6.60;99.90
46231;DHT22;31949;51.404;-0.038;2023-12-14T00:55:32;6.60;99.90
46231;DHT22;31949;51.404;-0.038;2023-12-14T00:57:59;6.60;99.90
46231;DHT22;31949;51.404;-0.038;2023-12-14T01:00:26;6.70;99.90
46231;DHT22;31949;51.404;-0.038;2023-12-14T01:02:53;6.70;99.90
46231;DHT22;31949;51.404;-0.038;2023-12-14T01:05:21;6.70;99.90
46231;DHT22;31949;51.404;-0.038;2023-12-14T01:07:48;6.70;99.90
46231;DHT22;31949;51.404;-0.038;2023-12-14T01:10:15;6.70;99.90
46231;DHT22;31949;51.404;-0.038;2023-12-14T01:12:42;6.70;99.90
46231;DHT22;31949;51.404;-0.038;2023-12-14T01:15:10;6.70;99.90
46231;DHT22;31949;51.404;-0.038;2023-12-14T01:17:37;6.60;99.90
46231;DHT22;31949;51.404;-0.038;2023-12-14T01:20:08;6.70;99.90
46231;DHT22;31949;51.404;-0.038;2023-12-14T01:22:35;6.70;99.90
46231;DHT22;31949;51.404;-0.038;2023-12-14T01:25:03;6.70;99.90
46231;DHT22;31949;51.404;-0.038;2023-12-14T01:27:30;6.80;99.90
46231;DHT22;31949;51.404;-0.038;2023-12-14T01:29:58;6.70;99.90
46231;DHT22;31949;51.404;-0.038;2023-12-14T01:32:25;6.70;99.90
46231;DHT22;31949;51.404;-0.038;2023-12-14T01:34:52;6.70;99.90
46231;DHT22;31949;51.404;-0.038;2023-12-14T01:37:19;6.70;99.90
46231;DHT22;31949;51.404;-0.038;2023-12-14T01:39:46;6.70;99.90
46231;DHT22;31949;51.404;-0.038;2023-12-14T01:42:14;6.70;99.90
46231;DHT22;31949;51.404;-0.038;2023-12-14T01:44:41;6.70;99.90
46231;DHT22;31949;51.404;-0.038;2023-12-14T01:47:08;6.70;99.90
46231;DHT22;31949;51.404;-0.038;2023-12-14T01:49:35;6.70;99.90
46231;DHT22;31949;51.404;-0.038;2023-12-14T01:52:03;6.60;99.90
46231;DHT22;31949;51.404;-0.038;2023-12-14T01:54:30;6.70;99.90
46231;DHT22;31949;51.404;-0.038;2023-12-14T01:56:57;6.70;99.90
46231;DHT22;31949;51.404;-0.038;2023-12-14T01:59:25;6.70;99.90
46231;DHT22;31949;51.404;-0.038;2023-12-14T02:01:54;6.60;99.90
46231;DHT22;31949;51.404;-0.038;2023-12-14T02:04:24;6.60;99.90
46231;DHT22;31949;51.404;-0.038;2023-12-14T02:06:52;6.70;99.90
46231;DHT22;31949;51.404;-0.038;2023-12-14T02:09:19;6.70;99.90
46231;DHT22;31949;51.404;-0.038;2023-12-14T02:11:46;6.70;99.90
46231;DHT22;31949;51.404;-0.038;2023-12-14T02:14:14;6.60;99.90
46231;DHT22;31949;51.404;-0.038;2023-12-14T02:16:41;6.60;99.90
46231;DHT22;31949;51.404;-0.038;2023-12-14T02:19:08;6.60;99.90
46231;DHT22;31949;51.404;-0.038;2023-12-14T02:21:35;6.60;99.90
46231;DHT22;31949;51.404;-0.038;2023-12-14T02:24:03;6.60;99.90
46231;DHT22;31949;51.404;-0.038;2023-12-14T02:26:30;6.60;99.90
46231;DHT22;31949;51.404;-0.038;2023-12-14T02:28:57;6.60;99.90
46231;DHT22;31949;51.404;-0.038;2023-12-14T02:31:24;6.60;99.90
46231;DHT22;31949;51.404;-0.038;2023-12-14T02:33:52;6.60;99.90
46231;DHT22;31949;51.404;-0.038;2023-12-14T02:36:19;6.60;99.90
46231;DHT22;31949;51.404;-0.038;2023-12-14T02:38:46;6.50;99.90
46231;DHT22;31949;51.404;-0.038;2023-12-14T02:41:13;6.50;99.90
46231;DHT22;31949;51.404;-0.038;2023-12-14T02:43:40;6.50;99.90
46231;DHT22;31949;51.404;-0.038;2023-12-14T02:46:08;6.50;99.90
46231;DHT22;31949;51.404;-0.038;2023-12-14T02:48:36;6.60;99.90
46231;DHT22;31949;51.404;-0.038;2023-12-14T02:51:03;6.60;99.90
46231;DHT22;31949;51.404;-0.038;2023-12-14T02:53:30;6.60;99.90
46231;DHT22;31949;51.404;-0.038;2023-12-14T02:56:01;6.50;99.90
46231;DHT22;31949;51.404;-0.038;2023-12-14T02:58:28;6.60;99.90
46231;DHT22;31949;51.404;-0.038;2023-12-14T03:00:56;6.50;99.90
46231;DHT22;31949;51.404;-0.038;2023-12-14T03:03:23;6.50;99.90
46231;DHT22;31949;51.404;-0.038;2023-12-14T03:05:50;6.50;99.90
46231;DHT22;31949;51.404;-0.038;2023-12-14T03:08:17;6.50;99.90
46231;DHT22;31949;51.404;-0.038;2023-12-14T03:10:44;6.50;99.90
46231;DHT22;31949;51.404;-0.038;2023-12-14T03:13:12;6.40;99.90
46231;DHT22;31949;51.404;-0.038;2023-12-14T03:15:39;6.40;99.90
46231;DHT22;31949;51.404;-0.038;2023-12-14T03:18:09;6.40;99.90
46231;DHT22;31949;51.404;-0.038;2023-12-14T03:20:36;6.40;99.90
46231;DHT22;31949;51.404;-0.038;2023-12-14T03:23:04;6.40;99.90
46231;DHT22;31949;51.404;-0.038;2023-12-14T03:25:31;6.30;99.90
46231;DHT22;31949;51.404;-0.038;2023-12-14T03:27:58;6.30;99.90
46231;DHT22;31949;51.404;-0.038;2023-12-14T03:30:25;6.20;99.90
46231;DHT22;31949;51.404;-0.038;2023-12-14T03:32:54;6.20;99.90
46231;DHT22;31949;51.404;-0.038;2023-12-14T03:35:21;6.20;99.90
46231;DHT22;31949;51.404;-0.038;2023-12-14T03:37:49;6.20;99.90
46231;DHT22;31949;51.404;-0.038;2023-12-14T03:40:16;6.10;99.90
46231;DHT22;31949;51.404;-0.038;2023-12-14T03:42:43;6.10;99.90
46231;DHT22;31949;51.404;-0.038;2023-12-14T03:45:10;6.00;99.90
46231;DHT22;31949;51.404;-0.038;2023-12-14T03:47:38;5.90;99.90
46231;DHT22;31949;51.404;-0.038;2023-12-14T03:50:05;5.90;99.90
46231;DHT22;31949;51.404;-0.038;2023-12-14T03:52:33;5.80;99.90
46231;DHT22;31949;51.404;-0.038;2023-12-14T03:55:01;5.80;99.90
46231;DHT22;31949;51.404;-0.038;2023-12-14T03:57:28;5.80;99.90
46231;DHT22;31949;51.404;-0.038;2023-12-14T03:59:56;5.70;99.90
46231;DHT22;31949;51.404;-0.038;2023-12-14T04:02:23;5.70;99.90
46231;DHT22;31949;51.404;-0.038;2023-12-14T04:04:51;5.60;99.90
46231;DHT22;31949;51.404;-0.038;2023-12-14T04:07:18;5.60;99.90
46231;DHT22;31949;51.404;-0.038;2023-12-14T04:09:45;5.60;99.90
46231;DHT22;31949;51.404;-0.038;2023-12-14T04:12:13;5.50;99.90
46231;DHT22;31949;51.404;-0.038;2023-12-14T04:14:40;5.40;99.90
46231;DHT22;31949;51.404;-0.038;2023-12-14T04:17:07;5.40;99.90
46231;DHT22;31949;51.404;-0.038;2023-12-14T04:19:34;5.30;99.90
46231;DHT22;31949;51.404;-0.038;2023-12-14T04:22:02;5.30;99.90
46231;DHT22;31949;51.404;-0.038;2023-12-14T04:24:29;5.20;99.90
46231;DHT22;31949;51.404;-0.038;2023-12-14T04:26:57;5.30;99.90
46231;DHT22;31949;51.404;-0.038;2023-12-14T04:29:24;5.30;99.90
46231;DHT22;31949;51.404;-0.038;2023-12-14T04:31:52;5.20;99.90
46231;DHT22;31949;51.404;-0.038;2023-12-14T04:34:20;5.20;99.90
46231;DHT22;31949;51.404;-0.038;2023-12-14T04:36:48;5.10;99.90
46231;DHT22;31949;51.404;-0.038;2023-12-14T04:39:15;5.10;99.90
46231;DHT22;31949;51.404;-0.038;2023-12-14T04:41:44;5.00;99.90
46231;DHT22;31949;51.404;-0.038;2023-12-14T04:44:11;5.00;99.90
46231;DHT22;31949;51.404;-0.038;2023-12-14T04:46:39;5.00;99.90
46231;DHT22;31949;51.404;-0.038;2023-12-14T04:49:06;5.00;99.90
46231;DHT22;31949;51.404;-0.038;2023-12-14T04:51:33;4.90;99.90
46231;DHT22;31949;51.404;-0.038;2023-12-14T04:54:00;4.90;99.90
46231;DHT22;31949;51.404;-0.038;2023-12-14T04:56:27;4.90;99.90
46231;DHT22;31949;51.404;-0.038;2023-12-14T04:58:55;5.00;99.90
46231;DHT22;31949;51.404;-0.038;2023-12-14T05:01:22;5.00;99.90
46231;DHT22;31949;51.404;-0.038;2023-12-14T05:03:49;5.00;99.90
46231;DHT22;31949;51.404;-0.038;2023-12-14T05:06:16;5.00;99.90
46231;DHT22;31949;51.404;-0.038;2023-12-14T05:08:44;5.00;99.90
46231;DHT22;31949;51.404;-0.038;2023-12-14T05:11:13;5.00;99.90
46231;DHT22;31949;51.404;-0.038;2023-12-14T05:13:40;5.00;99.90
46231;DHT22;31949;51.404;-0.038;2023-12-14T05:16:16;5.00;99.90
46231;DHT22;31949;51.404;-0.038;2023-12-14T05:18:43;5.00;99.90
46231;DHT22;31949;51.404;-0.038;2023-12-14T05:21:16;5.00;99.90
46231;DHT22;31949;51.404;-0.038;2023-12-14T05:23:44;4.90;99.90
46231;DHT22;31949;51.404;-0.038;2023-12-14T05:26:12;5.00;99.90
46231;DHT22;31949;51.404;-0.038;2023-12-14T05:28:39;5.00;99.90
46231;DHT22;31949;51.404;-0.038;2023-12-14T05:31:06;5.00;99.90
46231;DHT22;31949;51.404;-0.038;2023-12-14T05:33:40;5.00;99.90
46231;DHT22;31949;51.404;-0.038;2023-12-14T05:36:07;5.00;99.90
46231;DHT22;31949;51.404;-0.038;2023-12-14T05:38:41;5.00;99.90
46231;DHT22;31949;51.404;-0.038;2023-12-14T05:41:09;5.00;99.90
46231;DHT22;31949;51.404;-0.038;2023-12-14T05:43:37;4.90;99.90
46231;DHT22;31949;51.404;-0.038;2023-12-14T05:46:04;4.90;99.90
46231;DHT22;31949;51.404;-0.038;2023-12-14T05:48:32;4.90;99.90
46231;DHT22;31949;51.404;-0.038;2023-12-14T05:51:00;4.90;99.90
46231;DHT22;31949;51.404;-0.038;2023-12-14T05:53:28;4.80;99.90
46231;DHT22;31949;51.404;-0.038;2023-12-14T05:55:56;4.80;99.90
46231;DHT22;31949;51.404;-0.038;2023-12-14T05:58:23;4.80;99.90
46231;DHT22;31949;51.404;-0.038;2023-12-14T06:00:50;4.80;99.90
46231;DHT22;31949;51.404;-0.038;2023-12-14T06:03:18;4.80;99.90
46231;DHT22;31949;51.404;-0.038;2023-12-14T06:05:45;4.80;99.90
46231;DHT22;31949;51.404;-0.038;2023-12-14T06:08:12;4.90;99.90
46231;DHT22;31949;51.404;-0.038;2023-12-14T06:10:40;4.80;99.90
46231;DHT22;31949;51.404;-0.038;2023-12-14T06:13:07;4.80;99.90
46231;DHT22;31949;51.404;-0.038;2023-12-14T06:15:34;4.90;99.90
46231;DHT22;31949;51.404;-0.038;2023-12-14T06:18:01;4.80;99.90
46231;DHT22;31949;51.404;-0.038;2023-12-14T06:20:29;4.70;99.90
46231;DHT22;31949;51.404;-0.038;2023-12-14T06:22:56;4.70;99.90
46231;DHT22;31949;51.404;-0.038;2023-12-14T06:25:23;4.70;99.90
46231;DHT22;31949;51.404;-0.038;2023-12-14T06:27:50;4.80;99.90
46231;DHT22;31949;51.404;-0.038;2023-12-14T06:30:17;4.80;99.90
46231;DHT22;31949;51.404;-0.038;2023-12-14T06:32:44;4.90;99.90
46231;DHT22;31949;51.404;-0.038;2023-12-14T06:35:12;4.90;99.90
46231;DHT22;31949;51.404;-0.038;2023-12-14T06:37:41;4.90;99.90
46231;DHT22;31949;51.404;-0.038;2023-12-14T06:40:09;4.90;99.90
46231;DHT22;31949;51.404;-0.038;2023-12-14T06:42:37;4.80;99.90
46231;DHT22;31949;51.404;-0.038;2023-12-14T06:45:05;4.80;99.90
46231;DHT22;31949;51.404;-0.038;2023-12-14T06:47:33;4.80;99.90
46231;DHT22;31949;51.404;-0.038;2023-12-14T06:50:00;4.90;99.90
46231;DHT22;31949;51.404;-0.038;2023-12-14T06:52:27;4.80;99.90
46231;DHT22;31949;51.404;-0.038;2023-12-14T06:54:54;4.80;99.90
46231;DHT22;31949;51.404;-0.038;2023-12-14T06:57:22;4.80;99.90
46231;DHT22;31949;51.404;-0.038;2023-12-14T06:59:51;4.70;99.90
46231;DHT22;31949;51.404;-0.038;2023-12-14T07:02:18;4.80;99.90
46231;DHT22;31949;51.404;-0.038;2023-12-14T07:04:45;4.80;99.90
46231;DHT22;31949;51.404;-0.038;2023-12-14T07:07:13;4.80;99.90
46231;DHT22;31949;51.404;-0.038;2023-12-14T07:09:40;4.80;99.90
46231;DHT22;31949;51.404;-0.038;2023-12-14T07:12:07;4.80;99.90
46231;DHT22;31949;51.404;-0.038;2023-12-14T07:14:35;4.80;99.90
46231;DHT22;31949;51.404;-0.038;2023-12-14T07:17:02;4.90;99.90
46231;DHT22;31949;51.404;-0.038;2023-12-14T07:19:29;4.90;99.90
46231;DHT22;31949;51.404;-0.038;2023-12-14T07:21:57;4.90;99.90
46231;DHT22;31949;51.404;-0.038;2023-12-14T07:24:24;4.90;99.90
46231;DHT22;31949;51.404;-0.038;2023-12-14T07:26:51;4.90;99.90
46231;DHT22;31949;51.404;-0.038;2023-12-14T07:29:18;4.90;99.90
46231;DHT22;31949;51.404;-0.038;2023-12-14T07:31:45;4.80;99.90
46231;DHT22;31949;51.404;-0.038;2023-12-14T07:34:13;4.80;99.90
46231;DHT22;31949;51.404;-0.038;2023-12-14T07:36:40;4.90;99.90
46231;DHT22;31949;51.404;-0.038;2023-12-14T07:39:07;4.80;99.90
46231;DHT22;31949;51.404;-0.038;2023-12-14T07:41:36;4.90;99.90
46231;DHT22;31949;51.404;-0.038;2023-12-14T07:44:03;4.90;99.90
46231;DHT22;31949;51.404;-0.038;2023-12-14T07:46:32;4.90;99.90
46231;DHT22;31949;51.404;-0.038;2023-12-14T07:49:00;4.90;99.90
46231;DHT22;31949;51.404;-0.038;2023-12-14T07:51:30;4.90;99.90
46231;DHT22;31949;51.404;-0.038;2023-12-14T07:53:57;4.90;99.90
46231;DHT22;31949;51.404;-0.038;2023-12-14T07:56:25;4.90;99.90
46231;DHT22;31949;51.404;-0.038;2023-12-14T07:58:54;4.90;99.90
46231;DHT22;31949;51.404;-0.038;2023-12-14T08:01:22;4.90;99.90
46231;DHT22;31949;51.404;-0.038;2023-12-14T08:03:49;4.90;99.90
46231;DHT22;31949;51.404;-0.038;2023-12-14T08:06:16;4.90;99.90
46231;DHT22;31949;51.404;-0.038;2023-12-14T08:08:43;4.90;99.90
46231;DHT22;31949;51.404;-0.038;2023-12-14T08:11:11;5.00;99.90
46231;DHT22;31949;51.404;-0.038;2023-12-14T08:13:38;5.00;99.90
46231;DHT22;31949;51.404;-0.038;2023-12-14T08:16:08;5.00;99.90
46231;DHT22;31949;51.404;-0.038;2023-12-14T08:18:35;5.00;99.90
46231;DHT22;31949;51.404;-0.038;2023-12-14T08:21:03;5.00;99.90
46231;DHT22;31949;51.404;-0.038;2023-12-14T08:23:31;5.00;99.90
46231;DHT22;31949;51.404;-0.038;2023-12-14T08:25:58;5.00;99.90
46231;DHT22;31949;51.404;-0.038;2023-12-14T08:28:26;5.00;99.90
46231;DHT22;31949;51.404;-0.038;2023-12-14T08:30:53;4.90;99.90
46231;DHT22;31949;51.404;-0.038;2023-12-14T08:33:20;5.00;99.90
46231;DHT22;31949;51.404;-0.038;2023-12-14T08:35:47;5.00;99.90
46231;DHT22;31949;51.404;-0.038;2023-12-14T08:38:16;5.00;99.90
46231;DHT22;31949;51.404;-0.038;2023-12-14T08:40:43;5.10;99.90
46231;DHT22;31949;51.404;-0.038;2023-12-14T08:43:10;5.10;99.90
46231;DHT22;31949;51.404;-0.038;2023-12-14T08:45:38;5.20;99.90
46231;DHT22;31949;51.404;-0.038;2023-12-14T08:48:05;5.20;99.90
46231;DHT22;31949;51.404;-0.038;2023-12-14T08:50:33;5.20;99.90
46231;DHT22;31949;51.404;-0.038;2023-12-14T08:53:00;5.20;99.90
46231;DHT22;31949;51.404;-0.038;2023-12-14T08:55:28;5.20;99.90
46231;DHT22;31949;51.404;-0.038;2023-12-14T08:57:55;5.30;99.90
46231;DHT22;31949;51.404;-0.038;2023-12-14T09:00:23;5.30;99.90
46231;DHT22;31949;51.404;-0.038;2023-12-14T09:02:50;5.30;99.90
46231;DHT22;31949;51.404;-0.038;2023-12-14T09:05:18;5.30;99.90
46231;DHT22;31949;51.404;-0.038;2023-12-14T09:07:48;5.30;99.90
46231;DHT22;31949;51.404;-0.038;2023-12-14T09:10:15;5.30;99.90
46231;DHT22;31949;51.404;-0.038;2023-12-14T09:12:42;5.30;99.90
46231;DHT22;31949;51.404;-0.038;2023-12-14T09:15:09;5.30;99.90
46231;DHT22;31949;51.404;-0.038;2023-12-14T09:17:37;5.40;99.90
46231;DHT22;31949;51.404;-0.038;2023-12-14T09:20:05;5.40;99.90
46231;DHT22;31949;51.404;-0.038;2023-12-14T09:22:32;5.40;99.90
46231;DHT22;31949;51.404;-0.038;2023-12-14T09:24:59;5.40;99.90
46231;DHT22;31949;51.404;-0.038;2023-12-14T09:27:29;5.50;99.90
46231;DHT22;31949;51.404;-0.038;2023-12-14T09:29:56;5.50;99.90
46231;DHT22;31949;51.404;-0.038;2023-12-14T09:32:23;5.60;99.90
46231;DHT22;31949;51.404;-0.038;2023-12-14T09:34:50;5.60;99.90
46231;DHT22;31949;51.404;-0.038;2023-12-14T09:37:19;5.60;99.90
46231;DHT22;31949;51.404;-0.038;2023-12-14T09:39:46;5.70;99.90
46231;DHT22;31949;51.404;-0.038;2023-12-14T09:42:18;5.70;99.90
46231;DHT22;31949;51.404;-0.038;2023-12-14T09:44:50;5.70;99.90
46231;DHT22;31949;51.404;-0.038;2023-12-14T09:47:17;5.70;99.90
46231;DHT22;31949;51.404;-0.038;2023-12-14T09:49:45;5.80;99.90
46231;DHT22;31949;51.404;-0.038;2023-12-14T09:52:13;5.80;99.90
46231;DHT22;31949;51.404;-0.038;2023-12-14T09:54:40;5.90;99.90
46231;DHT22;31949;51.404;-0.038;2023-12-14T09:57:07;6.00;99.90
46231;DHT22;31949;51.404;-0.038;2023-12-14T09:59:34;6.00;99.90
46231;DHT22;31949;51.404;-0.038;2023-12-14T10:02:12;6.00;99.90
46231;DHT22;31949;51.404;-0.038;2023-12-14T10:04:39;6.00;99.90
46231;DHT22;31949;51.404;-0.038;2023-12-14T10:07:07;6.10;99.90
46231;DHT22;31949;51.404;-0.038;2023-12-14T10:09:37;6.10;99.90
46231;DHT22;31949;51.404;-0.038;2023-12-14T10:12:06;6.20;99.90
46231;DHT22;31949;51.404;-0.038;2023-12-14T10:14:35;6.20;99.90
46231;DHT22;31949;51.404;-0.038;2023-12-14T10:17:20;6.20;99.90
46231;DHT22;31949;51.404;-0.038;2023-12-14T10:19:59;6.30;99.90
46231;DHT22;31949;51.404;-0.038;2023-12-14T10:22:31;6.40;99.90
46231;DHT22;31949;51.404;-0.038;2023-12-14T10:24:59;6.50;99.90
46231;DHT22;31949;51.404;-0.038;2023-12-14T10:27:28;6.50;99.90
46231;DHT22;31949;51.404;-0.038;2023-12-14T10:29:57;6.60;99.90
46231;DHT22;31949;51.404;-0.038;2023-12-14T10:32:24;6.70;99.90
46231;DHT22;31949;51.404;-0.038;2023-12-14T10:34:52;6.70;99.90
46231;DHT22;31949;51.404;-0.038;2023-12-14T10:37:20;6.80;99.90
46231;DHT22;31949;51.404;-0.038;2023-12-14T10:39:49;6.90;99.90
46231;DHT22;31949;51.404;-0.038;2023-12-14T10:42:18;6.90;99.90
46231;DHT22;31949;51.404;-0.038;2023-12-14T10:44:52;6.90;99.90
46231;DHT22;31949;51.404;-0.038;2023-12-14T10:47:23;7.00;99.90
46231;DHT22;31949;51.404;-0.038;2023-12-14T10:49:54;6.90;99.90
46231;DHT22;31949;51.404;-0.038;2023-12-14T10:52:23;6.90;99.90
46231;DHT22;31949;51.404;-0.038;2023-12-14T10:54:56;6.90;99.90
46231;DHT22;31949;51.404;-0.038;2023-12-14T10:57:25;6.90;99.90
46231;DHT22;31949;51.404;-0.038;2023-12-14T11:00:00;7.00;99.90
46231;DHT22;31949;51.404;-0.038;2023-12-14T11:02:28;7.00;99.90
46231;DHT22;31949;51.404;-0.038;2023-12-14T11:05:00;7.00;99.90
46231;DHT22;31949;51.404;-0.038;2023-12-14T11:07:45;7.00;99.90
46231;DHT22;31949;51.404;-0.038;2023-12-14T11:10:14;7.00;99.90
46231;DHT22;31949;51.404;-0.038;2023-12-14T11:12:55;7.10;99.90
46231;DHT22;31949;51.404;-0.038;2023-12-14T11:15:22;7.10;99.90
46231;DHT22;31949;51.404;-0.038;2023-12-14T11:20:59;7.20;99.90
46231;DHT22;31949;51.404;-0.038;2023-12-14T11:23:33;7.20;99.90
46231;DHT22;31949;51.404;-0.038;2023-12-14T11:26:05;7.20;99.90
46231;DHT22;31949;51.404;-0.038;2023-12-14T11:28:38;7.20;99.90
46231;DHT22;31949;51.404;-0.038;2023-12-14T11:31:07;7.20;99.90
46231;DHT22;31949;51.404;-0.038;2023-12-14T11:33:36;7.20;99.90
46231;DHT22;31949;51.404;-0.038;2023-12-14T11:36:11;7.20;99.90
46231;DHT22;31949;51.404;-0.038;2023-12-14T11:38:39;7.20;99.90
46231;DHT22;31949;51.404;-0.038;2023-12-14T11:41:06;7.20;99.90
46231;DHT22;31949;51.404;-0.038;2023-12-14T11:43:43;7.20;99.90
46231;DHT22;31949;51.404;-0.038;2023-12-14T11:46:12;7.40;99.90
46231;DHT22;31949;51.404;-0.038;2023-12-14T11:48:44;7.40;99.90
46231;DHT22;31949;51.404;-0.038;2023-12-14T11:51:11;7.50;99.90
46231;DHT22;31949;51.404;-0.038;2023-12-14T11:53:39;7.60;99.90
46231;DHT22;31949;51.404;-0.038;2023-12-14T11:56:07;7.50;99.90
46231;DHT22;31949;51.404;-0.038;2023-12-14T11:58:35;7.50;99.90
46231;DHT22;31949;51.404;-0.038;2023-12-14T12:01:18;7.60;99.90
46231;DHT22;31949;51.404;-0.038;2023-12-14T12:03:46;7.60;99.90
46231;DHT22;31949;51.404;-0.038;2023-12-14T12:06:25;7.60;99.90
46231;DHT22;31949;51.404;-0.038;2023-12-14T12:08:53;7.60;99.90
46231;DHT22;31949;51.404;-0.038;2023-12-14T12:11:21;7.60;99.90
46231;DHT22;31949;51.404;-0.038;2023-12-14T12:13:54;7.60;99.90
46231;DHT22;31949;51.404;-0.038;2023-12-14T12:16:21;7.70;99.90
46231;DHT22;31949;51.404;-0.038;2023-12-14T12:18:49;7.70;99.90
46231;DHT22;31949;51.404;-0.038;2023-12-14T12:21:20;7.70;99.90
46231;DHT22;31949;51.404;-0.038;2023-12-14T12:23:47;7.60;99.90
46231;DHT22;31949;51.404;-0.038;2023-12-14T12:26:14;7.60;99.90
46231;DHT22;31949;51.404;-0.038;2023-12-14T12:28:42;7.50;99.90
46231;DHT22;31949;51.404;-0.038;2023-12-14T12:31:09;7.50;99.90
46231;DHT22;31949;51.404;-0.038;2023-12-14T12:33:36;7.50;99.90
46231;DHT22;31949;51.404;-0.038;2023-12-14T12:36:06;7.50;99.90
46231;DHT22;31949;51.404;-0.038;2023-12-14T12:38:33;7.60;99.90
46231;DHT22;31949;51.404;-0.038;2023-12-14T12:41:00;7.60;99.90
46231;DHT22;31949;51.404;-0.038;2023-12-14T12:43:29;7.60;99.90
46231;DHT22;31949;51.404;-0.038;2023-12-14T12:45:56;7.60;99.90
46231;DHT22;31949;51.404;-0.038;2023-12-14T12:48:25;7.60;99.90
46231;DHT22;31949;51.404;-0.038;2023-12-14T12:50:54;7.60;99.90
46231;DHT22;31949;51.404;-0.038;2023-12-14T12:53:22;7.70;99.90
46231;DHT22;31949;51.404;-0.038;2023-12-14T12:55:49;7.70;99.90
46231;DHT22;31949;51.404;-0.038;2023-12-14T12:58:16;7.70;99.90
46231;DHT22;31949;51.404;-0.038;2023-12-14T13:00:43;7.70;99.90
46231;DHT22;31949;51.404;-0.038;2023-12-14T13:03:11;7.80;99.90
46231;DHT22;31949;51.404;-0.038;2023-12-14T13:05:38;7.80;99.90
46231;DHT22;31949;51.404;-0.038;2023-12-14T13:08:06;7.80;99.90
46231;DHT22;31949;51.404;-0.038;2023-12-14T13:10:34;7.90;99.90
46231;DHT22;31949;51.404;-0.038;2023-12-14T13:13:01;7.80;99.90
46231;DHT22;31949;51.404;-0.038;2023-12-14T13:15:28;7.80;99.90
46231;DHT22;31949;51.404;-0.038;2023-12-14T13:17:58;7.90;99.90
46231;DHT22;31949;51.404;-0.038;2023-12-14T13:20:26;7.80;99.90
46231;DHT22;31949;51.404;-0.038;2023-12-14T13:22:53;7.80;99.90
46231;DHT22;31949;51.404;-0.038;2023-12-14T13:25:20;7.80;99.90
46231;DHT22;31949;51.404;-0.038;2023-12-14T13:27:53;7.80;99.90
46231;DHT22;31949;51.404;-0.038;2023-12-14T13:30:20;7.80;99.90
46231;DHT22;31949;51.404;-0.038;2023-12-14T13:32:49;7.80;99.90
46231;DHT22;31949;51.404;-0.038;2023-12-14T13:35:17;7.80;99.90
46231;DHT22;31949;51.404;-0.038;2023-12-14T13:37:44;7.80;99.90
46231;DHT22;31949;51.404;-0.038;2023-12-14T13:40:11;7.80;99.90
46231;DHT22;31949;51.404;-0.038;2023-12-14T13:42:42;7.80;99.90
46231;DHT22;31949;51.404;-0.038;2023-12-14T13:45:26;7.80;99.90
46231;DHT22;31949;51.404;-0.038;2023-12-14T13:47:54;7.80;99.90
46231;DHT22;31949;51.404;-0.038;2023-12-14T13:50:22;7.80;99.90
46231;DHT22;31949;51.404;-0.038;2023-12-14T13:52:51;7.80;99.90
46231;DHT22;31949;51.404;-0.038;2023-12-14T13:55:18;7.80;99.90
46231;DHT22;31949;51.404;-0.038;2023-12-14T13:57:45;7.80;99.90
46231;DHT22;31949;51.404;-0.038;2023-12-14T14:00:15;7.80;99.90
46231;DHT22;31949;51.404;-0.038;2023-12-14T14:02:43;7.80;99.90
46231;DHT22;31949;51.404;-0.038;2023-12-14T14:05:10;7.80;99.90
46231;DHT22;31949;51.404;-0.038;2023-12-14T14:07:37;7.80;99.90
46231;DHT22;31949;51.404;-0.038;2023-12-14T14:10:05;7.80;99.90
46231;DHT22;31949;51.404;-0.038;2023-12-14T14:12:33;7.90;99.90
46231;DHT22;31949;51.404;-0.038;2023-12-14T14:15:00;7.90;99.90
46231;DHT22;31949;51.404;-0.038;2023-12-14T14:17:29;7.90;99.90
46231;DHT22;31949;51.404;-0.038;2023-12-14T14:19:57;8.00;99.90
46231;DHT22;31949;51.404;-0.038;2023-12-14T14:22:24;7.90;99.90
46231;DHT22;31949;51.404;-0.038;2023-12-14T14:24:51;7.90;99.90
46231;DHT22;31949;51.404;-0.038;2023-12-14T14:27:18;7.90;99.90
46231;DHT22;31949;51.404;-0.038;2023-12-14T14:29:45;7.90;99.90
46231;DHT22;31949;51.404;-0.038;2023-12-14T14:32:12;7.90;99.90
46231;DHT22;31949;51.404;-0.038;2023-12-14T14:34:41;7.90;99.90
46231;DHT22;31949;51.404;-0.038;2023-12-14T14:37:09;8.00;99.90
46231;DHT22;31949;51.404;-0.038;2023-12-14T14:39:36;8.10;99.90
46231;DHT22;31949;51.404;-0.038;2023-12-14T14:42:09;8.10;99.90
46231;DHT22;31949;51.404;-0.038;2023-12-14T14:44:36;8.10;99.90
46231;DHT22;31949;51.404;-0.038;2023-12-14T14:47:03;8.10;99.90
46231;DHT22;31949;51.404;-0.038;2023-12-14T14:49:31;8.10;99.90
46231;DHT22;31949;51.404;-0.038;2023-12-14T14:51:58;8.10;99.90
46231;DHT22;31949;51.404;-0.038;2023-12-14T14:54:25;8.10;99.90
46231;DHT22;31949;51.404;-0.038;2023-12-14T14:56:52;8.10;99.90
46231;DHT22;31949;51.404;-0.038;2023-12-14T14:59:20;8.20;99.90
46231;DHT22;31949;51.404;-0.038;2023-12-14T15:01:47;8.20;99.90
46231;DHT22;31949;51.404;-0.038;2023-12-14T15:04:14;8.10;99.90
46231;DHT22;31949;51.404;-0.038;2023-12-14T15:06:42;8.10;99.90
46231;DHT22;31949;51.404;-0.038;2023-12-14T15:09:09;8.10;99.90
46231;DHT22;31949;51.404;-0.038;2023-12-14T15:11:36;8.10;99.90
46231;DHT22;31949;51.404;-0.038;2023-12-14T15:14:03;8.10;99.90
46231;DHT22;31949;51.404;-0.038;2023-12-14T15:16:31;8.20;99.90
46231;DHT22;31949;51.404;-0.038;2023-12-14T15:18:58;8.20;99.90
46231;DHT22;31949;51.404;-0.038;2023-12-14T15:21:25;8.20;99.90
46231;DHT22;31949;51.404;-0.038;2023-12-14T15:23:52;8.10;99.90
46231;DHT22;31949;51.404;-0.038;2023-12-14T15:26:21;8.20;99.90
46231;DHT22;31949;51.404;-0.038;2023-12-14T15:28:52;8.20;99.90
46231;DHT22;31949;51.404;-0.038;2023-12-14T15:31:23;8.20;99.90
46231;DHT22;31949;51.404;-0.038;2023-12-14T15:33:50;8.20;99.90
46231;DHT22;31949;51.404;-0.038;2023-12-14T15:36:17;8.20;99.90
46231;DHT22;31949;51.404;-0.038;2023-12-14T15:38:44;8.30;99.90